Time;durP1;ratioP1;P1;durP2;ratioP2;P2;SDS_P1;SDS_P2;PMS_P1;PMS_P2;Temp;Humidity;BMP_temperature;BMP_pressure;BME280_temperature;BME280_humidity;BME280_pressure;Samples;Min_cycle;Max_cycle;Signal;HPM_P1;HPM_P2
2023/10/26 00:00:25;;;;;;;0.40;0.40;;;;;;;2.62;97.25;99599.97;5008337;28;20022;-74
2023/10/26 00:02:51;;;;;;;0.52;0.52;;;;;;;2.68;96.93;99592.41;5008511;28;20026;-74
2023/10/26 00:05:17;;;;;;;0.47;0.47;;;;;;;2.68;96.74;99581.28;5008329;28;20086;-72
2023/10/26 00:07:42;;;;;;;0.40;0.40;;;;;;;2.64;96.49;99585.50;5007077;28;20026;-72
2023/10/26 00:10:07;;;;;;;0.60;0.60;;;;;;;2.57;96.92;99581.16;5008205;28;20072;-72
2023/10/26 00:12:33;;;;;;;0.77;0.68;;;;;;;2.63;97.06;99582.91;5008101;28;20027;-72
2023/10/26 00:15:00;;;;;;;0.40;0.40;;;;;;;2.60;97.18;99578.63;5008107;28;20050;-71
2023/10/26 00:17:25;;;;;;;0.50;0.50;;;;;;;2.60;97.25;99574.34;5008275;28;20026;-72
2023/10/26 00:19:54;;;;;;;0.50;0.50;;;;;;;2.64;97.39;99582.94;5008010;28;20026;-71
2023/10/26 00:22:21;;;;;;;0.73;0.73;;;;;;;2.63;97.44;99576.09;5003307;28;20054;-73
2023/10/26 00:24:46;;;;;;;0.60;0.60;;;;;;;2.67;97.15;99582.97;4988583;28;20031;-71
2023/10/26 00:27:16;;;;;;;0.43;0.43;;;;;;;2.60;97.18;99573.50;4988605;28;20023;-72
2023/10/26 00:29:41;;;;;;;0.60;0.60;;;;;;;2.62;97.04;99576.91;5003657;28;20129;-73
2023/10/26 00:32:07;;;;;;;0.50;0.50;;;;;;;2.59;96.86;99579.44;4988041;28;20074;-72
2023/10/26 00:34:36;;;;;;;0.52;0.52;;;;;;;2.57;97.16;99569.19;4987071;28;20292;-73
2023/10/26 00:37:01;;;;;;;0.40;0.40;;;;;;;2.62;96.96;99581.22;4987509;28;20111;-73
2023/10/26 00:39:27;;;;;;;3.20;0.73;;;;;;;2.54;97.10;99568.31;4988318;28;20046;-72
2023/10/26 00:41:54;;;;;;;0.45;0.45;;;;;;;2.59;96.81;99574.31;4988151;28;20383;-72
2023/10/26 00:44:23;;;;;;;0.50;0.50;;;;;;;2.62;96.78;99578.66;4987955;28;20049;-75
2023/10/26 00:46:50;;;;;;;0.60;0.60;;;;;;;2.59;96.50;99570.06;4987964;28;20033;-73
2023/10/26 00:49:17;;;;;;;0.50;0.50;;;;;;;2.60;96.71;99573.50;4987866;28;20087;-73
2023/10/26 00:51:57;;;;;;;0.47;0.47;;;;;;;2.56;96.80;99567.47;5002617;28;20030;-73
2023/10/26 00:54:25;;;;;;;0.95;0.95;;;;;;;2.59;96.50;99558.94;4986546;28;20023;-72
2023/10/26 00:56:51;;;;;;;0.40;0.40;;;;;;;2.63;96.53;99565.84;4986922;28;20019;-71
2023/10/26 00:59:17;;;;;;;0.50;0.50;;;;;;;2.60;96.62;99563.25;4987616;28;20062;-72
2023/10/26 01:01:48;;;;;;;0.40;0.40;;;;;;;2.59;96.64;99566.63;4987703;28;20018;-72
2023/10/26 01:04:14;;;;;;;0.50;0.50;;;;;;;2.59;96.77;99566.63;4987010;28;20086;-72
2023/10/26 01:06:43;;;;;;;0.40;0.40;;;;;;;2.64;96.39;99562.44;4987710;28;20023;-72
2023/10/26 01:09:09;;;;;;;0.52;0.52;;;;;;;2.56;96.60;99548.66;4987673;28;20054;-72
2023/10/26 01:11:39;;;;;;;0.50;0.50;;;;;;;2.56;96.66;99543.53;4987680;28;20032;-74
2023/10/26 01:14:05;;;;;;;0.43;0.43;;;;;;;2.58;96.79;99555.53;4987727;28;20086;-72
2023/10/26 01:16:31;;;;;;;0.45;0.45;;;;;;;2.72;96.16;99557.38;4987534;28;20066;-71
2023/10/26 01:19:01;;;;;;;2.20;0.65;;;;;;;2.61;96.26;99552.16;4987543;28;20030;-73
2023/10/26 01:21:30;;;;;;;0.43;0.43;;;;;;;2.63;96.35;99552.16;4998676;28;20057;-72
2023/10/26 01:23:56;;;;;;;0.70;0.70;;;;;;;2.65;96.45;99547.91;5006908;28;20049;-72
2023/10/26 01:26:21;;;;;;;0.63;0.52;;;;;;;2.56;96.72;99535.84;5006645;28;20088;-72
2023/10/26 01:28:47;;;;;;;0.40;0.40;;;;;;;2.69;96.79;99541.97;5006905;28;20053;-72
2023/10/26 01:31:16;;;;;;;3.53;0.98;;;;;;;2.76;96.17;99543.75;5006517;28;20022;-72
2023/10/26 01:33:42;;;;;;;0.50;0.50;;;;;;;2.72;96.46;99548.00;5005742;28;20033;-73
2023/10/26 01:36:08;;;;;;;0.50;0.50;;;;;;;2.71;96.55;99535.16;5006339;28;20026;-72
2023/10/26 01:38:34;;;;;;;0.40;0.40;;;;;;;2.64;97.02;99526.53;5006676;28;20023;-72
2023/10/26 01:40:59;;;;;;;0.50;0.50;;;;;;;2.78;96.47;99541.22;5006586;28;20045;-72
2023/10/26 01:43:25;;;;;;;1.02;1.02;;;;;;;2.78;96.34;99536.09;5006401;28;20089;-72
2023/10/26 01:45:50;;;;;;;0.75;0.75;;;;;;;2.79;96.27;99541.22;5004965;28;20026;-72
2023/10/26 01:48:15;;;;;;;0.43;0.43;;;;;;;2.81;96.09;99539.53;5006383;28;20037;-71
2023/10/26 01:50:41;;;;;;;0.40;0.40;;;;;;;2.92;95.32;99539.66;5004936;28;20525;-72
2023/10/26 01:53:06;;;;;;;0.40;0.40;;;;;;;2.83;95.61;99532.72;5005024;28;20090;-72
2023/10/26 01:55:31;;;;;;;0.40;0.40;;;;;;;2.90;95.10;99540.44;5006089;28;20081;-72
2023/10/26 01:57:57;;;;;;;0.52;0.52;;;;;;;2.79;95.85;99527.53;5006211;28;20037;-72
2023/10/26 02:00:23;;;;;;;0.40;0.40;;;;;;;2.91;95.13;99539.59;5006162;28;20023;-72
2023/10/26 02:02:49;;;;;;;0.45;0.45;;;;;;;2.94;94.83;99539.66;5004819;28;20029;-72
2023/10/26 02:05:15;;;;;;;1.13;1.02;;;;;;;2.82;95.45;99548.94;5005992;28;20446;-72
2023/10/26 02:07:40;;;;;;;0.80;0.80;;;;;;;2.93;95.39;99543.03;5006137;28;20030;-72
2023/10/26 02:10:06;;;;;;;0.65;0.65;;;;;;;2.85;96.00;99553.22;5005912;28;20078;-73
2023/10/26 02:12:31;;;;;;;1.23;0.60;;;;;;;2.88;96.45;99550.69;5005897;28;20026;-73
2023/10/26 02:14:57;;;;;;;0.90;0.70;;;;;;;2.89;96.58;99542.16;5006175;28;20536;-73
2023/10/26 02:17:22;;;;;;;0.60;0.60;;;;;;;2.91;96.63;99548.16;5005151;28;20027;-72
2023/10/26 02:19:47;;;;;;;0.40;0.40;;;;;;;2.90;96.48;99540.44;5005708;28;20501;-73
2023/10/26 02:22:14;;;;;;;0.93;0.88;;;;;;;2.91;95.62;99534.47;5005662;28;20494;-73
2023/10/26 02:24:41;;;;;;;0.63;0.60;;;;;;;2.97;95.95;99547.38;5020789;28;20025;-72
2023/10/26 02:27:06;;;;;;;0.38;0.38;;;;;;;2.96;96.07;99540.50;5005788;28;20045;-73
2023/10/26 02:29:32;;;;;;;0.85;0.55;;;;;;;2.96;95.57;99532.81;5004418;28;20022;-73
2023/10/26 02:31:57;;;;;;;0.98;0.88;;;;;;;2.91;95.70;99532.78;5005742;28;20058;-72
2023/10/26 02:34:22;;;;;;;0.70;0.70;;;;;;;2.90;96.24;99538.75;5005735;28;20018;-72
2023/10/26 02:36:48;;;;;;;0.50;0.50;;;;;;;2.99;95.57;99542.25;5005533;28;20549;-72
2023/10/26 02:39:22;;;;;;;4.38;1.27;;;;;;;2.92;95.66;99533.66;5005812;28;20054;-73
2023/10/26 02:41:47;;;;;;;0.80;0.80;;;;;;;3.00;95.60;99533.72;5005975;28;20027;-72
2023/10/26 02:44:12;;;;;;;0.85;0.85;;;;;;;2.93;95.65;99512.28;5005812;28;20034;-72
2023/10/26 02:46:38;;;;;;;0.43;0.43;;;;;;;2.96;95.80;99525.13;5005326;28;20026;-72
2023/10/26 02:49:03;;;;;;;0.40;0.40;;;;;;;2.98;95.76;99518.31;5004424;28;20090;-72
2023/10/26 02:51:28;;;;;;;0.75;0.75;;;;;;;3.01;95.28;99527.72;5005606;28;20065;-73
2023/10/26 02:53:54;;;;;;;0.40;0.40;;;;;;;3.02;95.49;99529.47;5005701;28;20029;-72
2023/10/26 02:56:19;;;;;;;0.40;0.40;;;;;;;3.15;94.35;99530.38;5005586;28;20044;-71
2023/10/26 02:58:44;;;;;;;0.75;0.60;;;;;;;3.03;94.62;99519.22;5020553;28;20022;-72
2023/10/26 03:01:10;;;;;;;0.60;0.60;;;;;;;2.97;95.00;99521.72;5004287;28;20023;-73
2023/10/26 03:03:35;;;;;;;0.40;0.40;;;;;;;2.94;94.97;99514.00;5004127;28;20288;-71
2023/10/26 03:06:01;;;;;;;0.50;0.50;;;;;;;2.93;95.31;99505.44;5005482;28;20049;-71
2023/10/26 03:08:26;;;;;;;0.52;0.52;;;;;;;2.96;95.32;99508.03;5004299;28;20027;-73
2023/10/26 03:10:51;;;;;;;0.40;0.40;;;;;;;2.97;95.13;99514.03;5005511;28;20510;-72
2023/10/26 03:13:17;;;;;;;0.40;0.40;;;;;;;2.99;95.20;99511.50;5005514;28;20022;-71
2023/10/26 03:15:42;;;;;;;0.50;0.50;;;;;;;2.99;95.26;99514.88;5005404;28;20038;-72
2023/10/26 03:18:07;;;;;;;3.40;0.95;;;;;;;3.00;95.22;99505.50;5005327;28;20041;-71
2023/10/26 03:20:33;;;;;;;0.80;0.80;;;;;;;3.01;94.89;99518.34;5006125;28;20093;-72
2023/10/26 03:22:58;;;;;;;0.40;0.40;;;;;;;2.98;94.99;99508.06;5009192;28;20083;-72
2023/10/26 03:25:25;;;;;;;0.75;0.65;;;;;;;2.99;95.27;99514.06;5008945;28;20022;-73
2023/10/26 03:27:50;;;;;;;0.40;0.40;;;;;;;3.06;94.88;99511.53;5009124;28;20386;-71
2023/10/26 03:30:17;;;;;;;1.42;0.85;;;;;;;3.04;94.63;99502.09;5008887;28;20026;-72
2023/10/26 03:32:43;;;;;;;0.50;0.50;;;;;;;2.99;95.06;99506.34;5009010;28;20019;-73
2023/10/26 03:35:09;;;;;;;1.65;0.82;;;;;;;3.03;94.80;99518.34;5008993;28;20026;-73
2023/10/26 03:37:36;;;;;;;0.40;0.40;;;;;;;3.01;94.77;99508.06;5009082;28;20438;-74
2023/10/26 03:40:02;;;;;;;0.40;0.40;;;;;;;3.01;95.06;99512.34;5007693;28;20190;-73
2023/10/26 03:42:28;;;;;;;0.40;0.40;;;;;;;3.00;94.91;99505.50;4991264;28;20022;-73
2023/10/26 03:44:53;;;;;;;0.88;0.88;;;;;;;2.93;95.08;99495.19;5008669;28;20080;-73
2023/10/26 03:47:18;;;;;;;0.40;0.40;;;;;;;3.00;95.12;99498.69;5007211;28;20050;-72
2023/10/26 03:49:44;;;;;;;0.55;0.55;;;;;;;3.00;94.80;99496.13;5008995;28;20041;-73
2023/10/26 03:52:10;;;;;;;1.90;0.68;;;;;;;3.00;94.63;99497.81;5008599;28;20498;-72
2023/10/26 03:54:35;;;;;;;0.50;0.50;;;;;;;3.01;94.60;99502.94;5008596;28;20018;-72
2023/10/26 03:57:00;;;;;;;0.60;0.60;;;;;;;2.98;94.92;99505.50;5006954;28;20030;-73
2023/10/26 03:59:26;;;;;;;0.50;0.50;;;;;;;2.97;94.76;99503.78;5007134;28;20549;-73
2023/10/26 04:01:51;;;;;;;0.50;0.50;;;;;;;3.00;94.84;99485.00;5008396;28;20026;-72
2023/10/26 04:04:16;;;;;;;0.40;0.40;;;;;;;2.97;94.86;99489.22;5008511;28;20026;-72
2023/10/26 04:06:42;;;;;;;0.47;0.47;;;;;;;2.89;94.96;99467.78;5008196;28;20340;-73
2023/10/26 04:09:08;;;;;;;0.45;0.45;;;;;;;3.08;94.72;99481.63;5008253;28;20336;-73
2023/10/26 04:11:35;;;;;;;0.40;0.40;;;;;;;3.04;94.73;99472.19;5008148;28;20035;-76
2023/10/26 04:14:00;;;;;;;0.60;0.60;;;;;;;3.06;94.79;99474.78;5006878;28;20037;-74
2023/10/26 04:16:25;;;;;;;0.68;0.68;;;;;;;3.04;94.96;99476.47;5008194;28;20030;-72
2023/10/26 04:18:51;;;;;;;1.15;0.90;;;;;;;3.05;94.40;99478.19;5006742;28;20134;-74
2023/10/26 04:21:16;;;;;;;0.70;0.70;;;;;;;2.98;94.77;99477.28;5006461;28;20039;-72
2023/10/26 04:23:42;;;;;;;0.50;0.50;;;;;;;3.00;94.95;99472.16;5006746;28;20102;-71
2023/10/26 04:26:09;;;;;;;0.50;0.50;;;;;;;3.07;94.65;99471.34;5007842;28;20034;-71
2023/10/26 04:28:35;;;;;;;0.40;0.40;;;;;;;3.09;94.53;99472.22;5006672;28;20018;-71
2023/10/26 04:31:04;;;;;;;0.43;0.43;;;;;;;3.05;94.64;99471.34;5007318;28;20383;-71
2023/10/26 04:33:29;;;;;;;0.65;0.65;;;;;;;3.03;94.76;99475.63;5006386;28;20045;-71
2023/10/26 04:35:55;;;;;;;0.93;0.68;;;;;;;3.10;94.35;99471.38;5007733;28;20033;-71
2023/10/26 04:38:20;;;;;;;1.20;1.02;;;;;;;3.07;94.65;99469.66;5006428;28;20038;-71
2023/10/26 04:40:54;;;;;;;0.70;0.70;;;;;;;3.03;94.73;99467.06;5007654;28;20466;-74
2023/10/26 04:43:20;;;;;;;0.50;0.50;;;;;;;3.13;94.34;99466.25;5007544;28;20045;-71
2023/10/26 04:45:47;;;;;;;0.60;0.60;;;;;;;3.07;94.32;99454.25;5006098;28;20053;-72
2023/10/26 04:48:12;;;;;;;2.88;0.70;;;;;;;3.10;94.13;99467.09;5005286;28;20030;-71
2023/10/26 04:50:38;;;;;;;0.50;0.50;;;;;;;3.08;94.57;99458.53;5022003;28;20057;-72
2023/10/26 04:53:04;;;;;;;1.60;1.15;;;;;;;3.12;94.45;99461.13;5007224;28;20102;-72
2023/10/26 04:55:35;;;;;;;0.50;0.50;;;;;;;3.13;94.29;99456.00;5006973;28;20022;-71
2023/10/26 04:58:01;;;;;;;1.20;0.80;;;;;;;3.09;94.17;99447.44;5007481;28;20128;-73
2023/10/26 05:00:27;;;;;;;0.57;0.57;;;;;;;3.11;94.29;99457.72;5007509;28;20030;-73
2023/10/26 05:02:52;;;;;;;0.77;0.63;;;;;;;3.09;94.27;99444.00;5005739;28;20027;-74
2023/10/26 05:05:18;;;;;;;0.82;0.82;;;;;;;3.20;94.07;99455.22;5007210;28;20042;-72
2023/10/26 05:07:44;;;;;;;0.43;0.43;;;;;;;3.15;93.91;99450.88;5007109;28;20070;-72
2023/10/26 05:10:10;;;;;;;0.80;0.80;;;;;;;3.18;94.14;99451.75;4989711;28;20030;-73
2023/10/26 05:12:35;;;;;;;1.05;0.95;;;;;;;3.14;94.30;99452.59;5007087;28;20029;-73
2023/10/26 05:15:01;;;;;;;1.50;1.40;;;;;;;3.19;93.88;99450.06;5005701;28;20030;-72
2023/10/26 05:17:26;;;;;;;0.80;0.80;;;;;;;3.16;93.69;99450.91;5006993;28;20034;-73
2023/10/26 05:19:52;;;;;;;0.80;0.80;;;;;;;3.17;94.02;99444.06;5006908;28;20029;-71
2023/10/26 05:22:19;;;;;;;1.08;1.00;;;;;;;3.10;94.24;99440.59;5006867;28;20396;-73
2023/10/26 05:24:44;;;;;;;0.40;0.40;;;;;;;3.19;93.93;99439.81;5005632;28;20057;-72
2023/10/26 05:27:10;;;;;;;0.60;0.60;;;;;;;3.24;93.51;99439.84;5006628;28;20022;-73
2023/10/26 05:29:35;;;;;;;0.70;0.70;;;;;;;3.20;93.67;99439.81;5005365;28;20026;-73
2023/10/26 05:32:01;;;;;;;0.70;0.70;;;;;;;3.26;93.39;99458.66;5006451;28;20029;-71
2023/10/26 05:34:26;;;;;;;0.55;0.55;;;;;;;3.17;93.24;99432.09;5006834;28;20031;-73
2023/10/26 05:36:51;;;;;;;0.55;0.55;;;;;;;3.19;93.71;99450.06;5021640;28;20018;-72
2023/10/26 05:39:17;;;;;;;1.17;1.15;;;;;;;3.16;93.99;99432.97;5006639;28;20478;-71
2023/10/26 05:41:43;;;;;;;0.77;0.77;;;;;;;3.22;93.62;99440.69;5006585;28;20023;-72
2023/10/26 05:44:09;;;;;;;0.63;0.63;;;;;;;3.18;94.22;99440.66;5004253;28;20462;-72
2023/10/26 05:46:35;;;;;;;2.15;1.40;;;;;;;3.22;94.23;99435.56;5004841;28;20031;-72
2023/10/26 05:49:00;;;;;;;0.95;0.95;;;;;;;3.29;93.58;99435.59;5006239;28;20027;-72
2023/10/26 05:51:26;;;;;;;1.60;1.40;;;;;;;3.26;93.61;99450.97;5006005;28;20073;-70
2023/10/26 05:53:51;;;;;;;0.93;0.93;;;;;;;3.22;94.19;99445.81;5006290;28;20057;-71
2023/10/26 05:56:16;;;;;;;1.00;0.70;;;;;;;3.24;93.84;99443.28;5004884;28;20022;-72
2023/10/26 05:58:43;;;;;;;0.77;0.60;;;;;;;3.22;94.18;99442.41;5004560;28;20026;-72
2023/10/26 06:01:09;;;;;;;2.15;1.08;;;;;;;3.24;94.37;99443.28;5006209;28;20082;-72
2023/10/26 06:03:34;;;;;;;0.57;0.57;;;;;;;3.23;94.36;99444.09;5006159;28;20038;-72
2023/10/26 06:06:01;;;;;;;0.63;0.63;;;;;;;3.32;93.63;99443.31;5004990;28;20034;-72
2023/10/26 06:08:27;;;;;;;1.55;1.45;;;;;;;3.27;93.74;99439.84;5006264;28;20026;-71
2023/10/26 06:10:52;;;;;;;0.70;0.70;;;;;;;3.25;93.84;99450.09;5006420;28;20084;-71
2023/10/26 06:13:18;;;;;;;1.50;0.93;;;;;;;3.20;93.88;99432.13;5006331;28;20026;-72
2023/10/26 06:15:43;;;;;;;0.68;0.52;;;;;;;3.21;94.04;99433.84;5006162;28;20037;-72
2023/10/26 06:18:09;;;;;;;1.20;0.85;;;;;;;3.18;94.05;99438.94;5005889;28;20379;-71
2023/10/26 06:20:35;;;;;;;0.90;0.90;;;;;;;3.19;93.98;99430.41;5004711;28;20097;-71
2023/10/26 06:23:01;;;;;;;0.95;0.80;;;;;;;3.22;94.01;99440.69;5006099;28;20034;-72
2023/10/26 06:25:28;;;;;;;0.82;0.80;;;;;;;3.15;94.10;99427.78;5004691;28;20026;-71
2023/10/26 06:27:53;;;;;;;0.65;0.65;;;;;;;3.20;94.39;99446.66;5004638;28;20046;-71
2023/10/26 06:30:19;;;;;;;0.50;0.50;;;;;;;3.26;94.09;99443.28;5005960;28;20029;-72
2023/10/26 06:32:44;;;;;;;0.98;0.65;;;;;;;3.27;94.02;99443.28;5005906;28;20406;-72
2023/10/26 06:35:10;;;;;;;1.55;1.23;;;;;;;3.27;94.21;99443.28;5004578;28;20026;-72
2023/10/26 06:37:37;;;;;;;2.70;1.63;;;;;;;3.33;94.45;99445.03;5005898;28;20098;-71
2023/10/26 06:40:03;;;;;;;1.20;1.10;;;;;;;3.34;93.35;99439.91;5005995;28;20038;-72
2023/10/26 06:42:28;;;;;;;0.75;0.70;;;;;;;3.37;93.38;99438.22;5005762;28;20053;-71
2023/10/26 06:44:53;;;;;;;0.50;0.50;;;;;;;3.36;93.82;99452.72;5005849;28;20086;-72
2023/10/26 06:47:19;;;;;;;2.17;1.85;;;;;;;3.38;93.84;99451.03;5004382;28;20057;-71
2023/10/26 06:49:44;;;;;;;1.50;0.63;;;;;;;3.39;93.56;99450.19;5004551;28;20057;-72
2023/10/26 06:52:09;;;;;;;0.65;0.65;;;;;;;3.36;93.71;99437.34;5005803;28;20037;-71
2023/10/26 06:54:35;;;;;;;0.95;0.70;;;;;;;3.37;93.27;99446.75;5005394;28;20034;-71
2023/10/26 06:57:00;;;;;;;0.50;0.50;;;;;;;3.41;93.36;99439.94;5009526;28;20031;-72
2023/10/26 06:59:25;;;;;;;0.98;0.98;;;;;;;3.43;93.52;99436.53;5008368;28;20026;-72
2023/10/26 07:01:51;;;;;;;0.75;0.75;;;;;;;3.58;92.48;99437.44;5009609;28;20030;-70
2023/10/26 07:04:16;;;;;;;0.40;0.40;;;;;;;3.57;92.04;99441.72;5009789;28;20030;-71
2023/10/26 07:06:42;;;;;;;0.50;0.50;;;;;;;3.55;91.89;99442.56;5009676;28;20027;-72
2023/10/26 07:09:07;;;;;;;0.50;0.50;;;;;;;3.63;92.27;99446.03;5008271;28;20085;-71
2023/10/26 07:11:33;;;;;;;0.82;0.82;;;;;;;3.66;91.80;99450.34;5008198;28;20026;-72
2023/10/26 07:13:58;;;;;;;0.50;0.50;;;;;;;3.65;91.66;99452.03;5009656;28;20030;-72
2023/10/26 07:16:24;;;;;;;0.80;0.80;;;;;;;3.67;91.11;99440.06;5008075;28;20120;-72
2023/10/26 07:18:50;;;;;;;0.57;0.57;;;;;;;3.78;90.66;99444.38;5009324;28;20029;-73
2023/10/26 07:21:16;;;;;;;0.70;0.60;;;;;;;3.77;90.45;99445.25;5007919;28;20089;-72
2023/10/26 07:23:41;;;;;;;0.73;0.73;;;;;;;3.75;90.86;99447.81;5008091;28;20100;-72
2023/10/26 07:26:07;;;;;;;0.40;0.40;;;;;;;3.77;90.87;99452.94;5007923;28;20531;-72
2023/10/26 07:28:32;;;;;;;0.70;0.70;;;;;;;3.76;90.64;99452.06;5009265;28;20022;-71
2023/10/26 07:30:58;;;;;;;0.60;0.60;;;;;;;3.75;90.70;99455.50;5009139;28;20026;-72
2023/10/26 07:33:24;;;;;;;0.50;0.50;;;;;;;3.79;90.95;99459.78;5007713;28;20173;-72
2023/10/26 07:35:56;;;;;;;2.65;0.90;;;;;;;3.89;90.74;99459.81;5009046;28;20022;-71
2023/10/26 07:38:24;;;;;;;2.83;0.82;;;;;;;4.05;89.87;99450.47;5009137;28;20022;-72
2023/10/26 07:40:54;;;;;;;0.40;0.40;;;;;;;4.26;88.35;99446.22;5009015;28;20018;-71
2023/10/26 07:43:20;;;;;;;0.50;0.50;;;;;;;4.18;88.57;99449.66;4991779;28;20030;-71
2023/10/26 07:45:51;;;;;;;1.20;1.10;;;;;;;4.19;88.96;99446.22;5008802;28;20421;-70
2023/10/26 07:48:16;;;;;;;1.02;1.02;;;;;;;4.24;88.34;99441.09;5008833;28;20030;-72
2023/10/26 07:50:42;;;;;;;0.98;0.98;;;;;;;4.22;88.40;99448.78;5008734;28;20161;-71
2023/10/26 07:53:08;;;;;;;1.65;0.60;;;;;;;4.17;88.50;99450.47;5008669;28;20033;-72
2023/10/26 07:55:33;;;;;;;1.13;1.02;;;;;;;4.06;88.71;99444.44;5007472;28;20033;-71
2023/10/26 07:57:59;;;;;;;0.60;0.60;;;;;;;4.00;88.15;99449.56;5008535;28;20027;-71
2023/10/26 08:00:25;;;;;;;0.60;0.60;;;;;;;3.98;88.23;99439.28;5008613;28;20026;-72
2023/10/26 08:02:50;;;;;;;0.63;0.63;;;;;;;4.03;87.60;99467.56;5008486;28;20018;-72
2023/10/26 08:05:15;;;;;;;0.70;0.70;;;;;;;3.97;87.44;99441.03;5007322;28;20018;-72
2023/10/26 08:07:41;;;;;;;0.50;0.50;;;;;;;3.95;87.64;99441.84;5007861;28;20074;-72
2023/10/26 08:10:11;;;;;;;0.75;0.75;;;;;;;3.92;87.94;99442.72;5007453;28;20029;-73
2023/10/26 08:12:36;;;;;;;0.60;0.60;;;;;;;3.96;87.73;99446.16;5007542;28;20470;-71
2023/10/26 08:15:02;;;;;;;0.40;0.40;;;;;;;4.06;87.69;99449.59;5008442;28;20058;-73
2023/10/26 08:17:32;;;;;;;0.57;0.57;;;;;;;3.96;87.21;99439.28;5008152;28;20363;-73
2023/10/26 08:19:58;;;;;;;0.90;0.90;;;;;;;3.96;88.02;99444.44;5007178;28;20303;-72
2023/10/26 08:22:26;;;;;;;0.90;0.90;;;;;;;4.03;87.60;99447.88;5006481;28;20050;-72
2023/10/26 08:24:52;;;;;;;0.57;0.57;;;;;;;3.99;87.42;99435.91;5006664;28;20026;-72
2023/10/26 08:27:18;;;;;;;0.57;0.57;;;;;;;3.99;87.59;99450.44;5008145;28;20029;-72
2023/10/26 08:29:43;;;;;;;0.47;0.47;;;;;;;4.06;86.71;99441.88;5023184;28;20049;-72
2023/10/26 08:32:08;;;;;;;0.50;0.50;;;;;;;3.96;87.22;99441.03;5007882;28;20054;-73
2023/10/26 08:34:34;;;;;;;0.60;0.60;;;;;;;4.04;86.88;99447.03;5023129;28;20434;-72
2023/10/26 08:37:00;;;;;;;0.68;0.68;;;;;;;4.02;86.97;99447.88;5008016;28;20022;-73
2023/10/26 08:39:26;;;;;;;1.05;0.77;;;;;;;4.08;87.08;99440.19;5007862;28;20029;-73
2023/10/26 08:41:51;;;;;;;4.03;1.23;;;;;;;4.06;87.83;99439.31;5008049;28;20030;-72
2023/10/26 08:44:17;;;;;;;0.95;0.45;;;;;;;4.12;88.37;99441.06;5006604;28;20367;-72
2023/10/26 08:46:44;;;;;;;0.95;0.95;;;;;;;4.17;87.97;99447.91;5007894;28;20026;-72
2023/10/26 08:49:11;;;;;;;0.60;0.60;;;;;;;4.21;87.52;99444.50;4990420;28;20077;-71
2023/10/26 08:51:36;;;;;;;0.57;0.57;;;;;;;4.17;87.21;99435.06;5006338;28;20032;-72
2023/10/26 08:54:02;;;;;;;0.85;0.50;;;;;;;4.22;87.83;99430.81;5007781;28;20018;-72
2023/10/26 08:56:27;;;;;;;0.43;0.43;;;;;;;4.27;88.16;99432.50;4990166;28;20068;-72
2023/10/26 08:58:56;;;;;;;0.50;0.50;;;;;;;4.40;87.57;99434.25;5007808;28;20038;-72
2023/10/26 09:01:22;;;;;;;1.42;0.60;;;;;;;4.37;88.19;99418.84;5007573;28;20037;-72
2023/10/26 09:03:47;;;;;;;0.82;0.82;;;;;;;4.43;87.92;99426.56;5007522;28;20026;-73
2023/10/26 09:06:12;;;;;;;0.40;0.40;;;;;;;4.41;87.96;99419.72;5007422;28;20049;-72
2023/10/26 09:08:38;;;;;;;0.93;0.93;;;;;;;4.44;87.84;99430.81;5007509;28;20525;-72
2023/10/26 09:11:21;;;;;;;0.70;0.70;;;;;;;4.43;86.98;99433.41;5007379;28;20023;-73
2023/10/26 09:13:47;;;;;;;0.45;0.45;;;;;;;4.37;87.66;99439.41;5007263;28;20025;-73
2023/10/26 09:16:12;;;;;;;0.70;0.70;;;;;;;4.37;86.54;99418.84;5007400;28;20022;-72
2023/10/26 09:18:38;;;;;;;0.40;0.40;;;;;;;4.42;87.16;99430.00;5004854;28;20034;-72
2023/10/26 09:21:05;;;;;;;0.63;0.52;;;;;;;4.46;87.10;99429.13;5022129;28;20046;-72
2023/10/26 09:23:32;;;;;;;0.40;0.40;;;;;;;4.45;87.58;99429.13;5005807;28;20034;-72
2023/10/26 09:26:04;;;;;;;0.95;0.95;;;;;;;4.46;87.16;99434.25;5007024;28;20070;-73
2023/10/26 09:28:56;;;;;;;0.60;0.60;;;;;;;4.48;86.93;99436.84;5007094;28;20033;-73
2023/10/26 09:31:23;;;;;;;0.77;0.77;;;;;;;4.46;86.81;99434.25;5006955;28;20034;-71
2023/10/26 09:33:49;;;;;;;0.80;0.80;;;;;;;4.50;86.94;99431.69;5006857;28;20036;-72
2023/10/26 09:36:20;;;;;;;1.38;0.95;;;;;;;4.54;86.63;99420.53;5006828;28;20041;-72
2023/10/26 09:38:47;;;;;;;0.77;0.77;;;;;;;4.59;86.26;99437.72;5005483;28;20474;-72
2023/10/26 09:41:15;;;;;;;0.50;0.50;;;;;;;4.60;86.31;99435.97;5005412;28;20030;-72
2023/10/26 09:43:41;;;;;;;0.70;0.70;;;;;;;4.71;85.76;99439.41;5005511;28;20030;-73
2023/10/26 09:46:10;;;;;;;0.45;0.45;;;;;;;4.65;86.00;99423.97;5006603;28;20026;-71
2023/10/26 09:48:36;;;;;;;0.80;0.80;;;;;;;4.79;86.17;99423.13;5006848;28;20026;-73
2023/10/26 09:51:04;;;;;;;1.27;1.17;;;;;;;4.87;85.23;99424.00;5006784;28;20069;-72
2023/10/26 09:53:35;;;;;;;0.70;0.70;;;;;;;4.91;84.45;99425.69;5005388;28;20045;-73
2023/10/26 09:56:05;;;;;;;0.68;0.68;;;;;;;4.98;84.75;99423.09;4989168;28;20045;-72
2023/10/26 09:58:35;;;;;;;0.40;0.40;;;;;;;5.19;84.65;99420.50;5005362;28;20076;-72
2023/10/26 10:01:02;;;;;;;0.60;0.60;;;;;;;5.35;84.31;99410.19;5021765;28;20049;-72
2023/10/26 10:03:29;;;;;;;1.08;0.95;;;;;;;5.39;83.24;99411.88;5021366;28;20084;-72
2023/10/26 10:05:55;;;;;;;0.50;0.50;;;;;;;5.49;83.27;99401.53;5006548;28;20033;-72
2023/10/26 10:08:57;;;;;;;0.70;0.70;;;;;;;5.73;84.37;99421.19;5006378;28;20022;-73
2023/10/26 10:11:23;;;;;;;2.08;0.77;;;;;;;6.07;83.12;99404.75;5006303;28;20421;-73
2023/10/26 10:13:49;;;;;;;0.63;0.63;;;;;;;6.16;82.72;99402.09;5005027;28;20490;-72
2023/10/26 10:16:33;;;;;;;0.77;0.55;;;;;;;6.06;81.07;99403.88;5006173;28;20037;-72
2023/10/26 10:19:21;;;;;;;0.43;0.43;;;;;;;5.87;81.65;99403.09;5006248;28;20018;-74
2023/10/26 10:21:51;;;;;;;1.02;0.60;;;;;;;5.82;81.83;99402.25;5005901;28;20490;-73
2023/10/26 10:24:44;;;;;;;0.40;0.40;;;;;;;5.75;81.36;99406.56;5006293;28;20046;-73
2023/10/26 10:27:12;;;;;;;0.40;0.40;;;;;;;5.53;81.21;99404.09;5004701;28;20049;-73
2023/10/26 10:29:42;;;;;;;0.70;0.70;;;;;;;5.52;81.01;99396.38;5005822;28;20483;-73
2023/10/26 10:32:10;;;;;;;1.15;1.05;;;;;;;5.57;81.48;99389.50;5006030;28;20525;-73
2023/10/26 10:34:57;;;;;;;0.63;0.63;;;;;;;5.67;81.57;99392.88;5006131;28;20029;-73
2023/10/26 10:37:23;;;;;;;0.60;0.60;;;;;;;5.60;81.34;99388.63;5005888;28;20085;-72
2023/10/26 10:40:11;;;;;;;1.10;1.00;;;;;;;5.66;80.43;99404.91;5005991;28;20031;-72
2023/10/26 10:42:39;;;;;;;0.40;0.40;;;;;;;5.56;80.30;99398.06;5004790;28;20026;-72
2023/10/26 10:45:08;;;;;;;0.52;0.52;;;;;;;5.51;79.50;99392.94;5005902;28;20382;-72
2023/10/26 10:47:34;;;;;;;0.98;0.98;;;;;;;5.40;80.05;99402.44;5005918;28;20054;-72
2023/10/26 10:50:20;;;;;;;0.50;0.50;;;;;;;5.27;80.71;99394.72;5006097;28;20482;-73
2023/10/26 10:52:47;;;;;;;0.40;0.40;;;;;;;5.26;80.39;99395.59;5004575;28;20022;-73
2023/10/26 10:55:33;;;;;;;0.55;0.55;;;;;;;5.27;79.91;99399.88;5005770;28;20018;-73
2023/10/26 10:58:00;;;;;;;0.88;0.70;;;;;;;5.18;80.09;99416.22;5005452;28;20374;-72
2023/10/26 11:00:28;;;;;;;0.40;0.40;;;;;;;5.14;80.39;99406.81;5005845;28;20026;-72
2023/10/26 11:02:57;;;;;;;0.50;0.50;;;;;;;5.12;80.63;99403.38;5005645;28;20027;-72
2023/10/26 11:05:36;;;;;;;0.43;0.43;;;;;;;5.12;80.36;99387.06;4988348;28;20026;-72
2023/10/26 11:08:03;;;;;;;0.73;0.73;;;;;;;5.13;80.13;99389.63;5005844;28;20036;-72
2023/10/26 11:10:29;;;;;;;0.77;0.60;;;;;;;5.03;80.22;99388.78;5005740;28;20037;-73
2023/10/26 11:12:54;;;;;;;0.60;0.55;;;;;;;5.08;80.81;99396.50;5005692;28;20022;-74
2023/10/26 11:15:20;;;;;;;0.50;0.50;;;;;;;5.16;80.37;99375.91;5004303;28;20027;-72
2023/10/26 11:17:47;;;;;;;1.95;1.77;;;;;;;5.14;80.83;99375.94;5004209;28;20023;-72
2023/10/26 11:20:36;;;;;;;0.40;0.40;;;;;;;5.15;81.01;99377.63;5004235;28;20050;-73
2023/10/26 11:23:02;;;;;;;8.75;0.75;;;;;;;5.13;81.16;99381.91;4988350;28;20027;-74
2023/10/26 11:25:27;;;;;;;0.50;0.50;;;;;;;5.10;81.17;99381.91;5005560;28;20041;-72
2023/10/26 11:27:53;;;;;;;0.40;0.40;;;;;;;5.10;80.99;99374.19;5005625;28;20402;-73
2023/10/26 11:30:18;;;;;;;0.43;0.43;;;;;;;5.09;81.06;99372.50;5005690;28;20034;-72
2023/10/26 11:32:44;;;;;;;0.40;0.40;;;;;;;5.12;80.18;99381.91;5005488;28;20022;-72
2023/10/26 11:35:14;;;;;;;1.50;1.00;;;;;;;4.96;79.96;99376.81;5005572;28;20053;-72
2023/10/26 11:37:42;;;;;;;3.60;0.73;;;;;;;4.91;80.76;99376.81;5004225;28;20054;-72
2023/10/26 11:40:10;;;;;;;1.05;0.60;;;;;;;4.94;81.23;99379.38;5005587;28;20052;-72